Time;durP1;ratioP1;P1;durP2;ratioP2;P2;SDS_P1;SDS_P2;PMS_P1;PMS_P2;Temp;Humidity;BMP_temperature;BMP_pressure;BME280_temperature;BME280_humidity;BME280_pressure;Samples;Min_cycle;Max_cycle;Signal;HPM_P1;HPM_P2
2021/10/09 00:02:05;;;;;;;0.30;0.30;;;;;;;12.65;66.61;103082.13;5026523;28;20489;-83
2021/10/09 00:04:33;;;;;;;0.10;0.10;;;;;;;12.64;66.50;103080.38;5090105;28;20472;-84
2021/10/09 00:07:00;;;;;;;0.15;0.15;;;;;;;12.62;66.64;103078.59;5032382;28;20562;-89
2021/10/09 00:09:28;;;;;;;0.10;0.10;;;;;;;12.63;66.64;103079.47;5009953;28;20030;-91
2021/10/09 00:11:57;;;;;;;0.10;0.10;;;;;;;12.62;66.06;103083.91;5004051;28;20485;-83
2021/10/09 00:14:28;;;;;;;0.32;0.32;;;;;;;12.62;66.66;103073.25;5008688;28;20061;-88
2021/10/09 00:16:55;;;;;;;0.10;0.10;;;;;;;12.57;66.72;103072.34;5002238;28;20056;-87
2021/10/09 00:19:22;;;;;;;0.10;0.10;;;;;;;12.60;66.85;103075.00;5004419;28;20021;-88
2021/10/09 00:21:49;;;;;;;0.00;0.00;;;;;;;12.56;67.04;103078.53;5003539;28;20031;-84
2021/10/09 00:24:19;;;;;;;0.10;0.10;;;;;;;12.56;66.41;103067.91;5007260;28;20091;-87
2021/10/09 00:26:46;;;;;;;0.10;0.10;;;;;;;12.53;66.64;103077.63;5058137;28;20488;-90
2021/10/09 00:29:14;;;;;;;0.10;0.10;;;;;;;12.52;66.66;103075.81;5020008;28;20087;-84
2021/10/09 00:31:41;;;;;;;0.10;0.10;;;;;;;12.50;66.59;103089.13;5039314;28;20433;-91
2021/10/09 00:34:08;;;;;;;0.10;0.10;;;;;;;12.53;67.33;103083.81;5012682;28;20030;-88
2021/10/09 00:36:35;;;;;;;0.32;0.32;;;;;;;12.51;67.07;103074.94;5012377;28;20030;-89
2021/10/09 00:39:03;;;;;;;0.20;0.20;;;;;;;12.54;66.63;103076.75;5012233;28;20029;-88
2021/10/09 00:41:30;;;;;;;0.05;0.05;;;;;;;12.47;67.33;103075.78;5011641;28;20033;-91
2021/10/09 00:44:06;;;;;;;0.10;0.10;;;;;;;12.51;67.06;103077.63;5012263;28;20034;-92
2021/10/09 00:46:33;;;;;;;0.85;0.73;;;;;;;12.46;66.48;103077.56;5056690;28;20027;-87
2021/10/09 00:48:59;;;;;;;0.30;0.30;;;;;;;12.45;66.51;103075.78;5008809;28;20034;-87
2021/10/09 00:51:25;;;;;;;0.10;0.10;;;;;;;12.46;66.78;103074.91;5013312;28;20026;-91
2021/10/09 00:53:52;;;;;;;7.90;1.10;;;;;;;12.44;66.59;103074.00;5023522;28;20034;-89
2021/10/09 00:56:19;;;;;;;0.63;0.63;;;;;;;12.40;67.13;103077.50;5061698;28;20076;-89
2021/10/09 00:58:46;;;;;;;0.10;0.10;;;;;;;12.37;67.05;103076.59;5006263;28;20076;-90
2021/10/09 01:01:15;;;;;;;0.10;0.10;;;;;;;12.40;67.43;103080.16;5005383;28;20056;-90
2021/10/09 01:03:43;;;;;;;0.10;0.10;;;;;;;12.45;66.59;103069.59;5004102;28;20040;-85
2021/10/09 01:06:10;;;;;;;0.10;0.10;;;;;;;12.42;67.57;103069.53;4983126;28;20023;-92
2021/10/09 01:08:40;;;;;;;0.65;0.65;;;;;;;12.41;66.73;103073.06;5008454;28;20069;-82
2021/10/09 01:11:08;;;;;;;0.47;0.47;;;;;;;12.40;67.13;103066.88;5032754;28;20034;-85
2021/10/09 01:13:35;;;;;;;0.10;0.10;;;;;;;12.40;67.15;103061.56;5010810;28;20035;-86
2021/10/09 01:16:21;;;;;;;0.10;0.10;;;;;;;12.45;67.00;103065.16;5023085;28;20033;-81
2021/10/09 01:18:56;;;;;;;0.10;0.10;;;;;;;12.42;67.22;103059.81;5018342;28;20037;-81
2021/10/09 01:21:24;;;;;;;0.68;0.57;;;;;;;12.42;66.89;103057.16;5094528;28;20519;-92
2021/10/09 01:23:52;;;;;;;0.10;0.10;;;;;;;12.40;67.27;103058.00;5002303;28;20034;-87
2021/10/09 01:26:19;;;;;;;0.10;0.10;;;;;;;12.35;67.47;103059.72;5005523;28;20119;-86
2021/10/09 01:28:49;;;;;;;0.30;0.30;;;;;;;12.38;67.11;103057.13;5013437;28;20038;-85
2021/10/09 01:31:16;;;;;;;0.10;0.10;;;;;;;12.36;67.41;103057.13;5072849;28;20032;-91
2021/10/09 01:33:44;;;;;;;0.10;0.10;;;;;;;12.40;67.63;103053.59;5115051;28;20024;-83
2021/10/09 01:36:10;;;;;;;0.10;0.10;;;;;;;12.36;66.78;103056.19;5048418;28;20031;-91
2021/10/09 01:38:38;;;;;;;0.20;0.20;;;;;;;12.33;67.68;103059.72;5085755;22;20509;-83
2021/10/09 01:41:07;;;;;;;0.10;0.10;;;;;;;12.33;67.52;103057.06;5093034;28;20035;-83
2021/10/09 01:43:33;;;;;;;0.20;0.20;;;;;;;12.34;66.73;103056.19;5093363;28;20467;-83
2021/10/09 01:46:01;;;;;;;0.22;0.22;;;;;;;12.28;67.22;103049.03;5093055;28;20059;-82
2021/10/09 01:48:37;;;;;;;0.10;0.10;;;;;;;12.31;67.46;103045.53;5094667;28;20024;-83
2021/10/09 01:51:06;;;;;;;0.05;0.05;;;;;;;12.25;66.92;103045.47;5092511;28;20127;-83
2021/10/09 01:53:33;;;;;;;0.20;0.20;;;;;;;12.24;66.99;103043.72;5092712;28;20024;-82
2021/10/09 01:56:00;;;;;;;0.38;0.38;;;;;;;12.22;66.51;103046.34;5089717;28;20036;-82
2021/10/09 01:58:26;;;;;;;0.38;0.38;;;;;;;12.20;66.46;103036.56;5083954;28;20437;-82
2021/10/09 02:00:53;;;;;;;0.08;0.08;;;;;;;12.20;66.35;103037.47;5092742;28;20032;-83
2021/10/09 02:03:21;;;;;;;0.77;0.77;;;;;;;12.19;66.72;103035.69;5089309;28;20107;-83
2021/10/09 02:05:48;;;;;;;0.43;0.43;;;;;;;12.16;66.58;103033.00;5088502;28;20054;-82
2021/10/09 02:08:15;;;;;;;0.10;0.10;;;;;;;12.17;66.82;103031.25;5087363;28;20028;-83
2021/10/09 02:11:00;;;;;;;0.10;0.10;;;;;;;12.13;67.03;103030.31;5087869;28;20036;-83
2021/10/09 02:27:17;;;;;;;0.10;0.10;;;;;;;12.04;66.88;103027.59;5004710;28;20109;-82
2021/10/09 02:29:43;;;;;;;0.15;0.15;;;;;;;12.05;67.20;103024.03;5003295;28;20117;-82
2021/10/09 02:32:10;;;;;;;0.40;0.40;;;;;;;12.05;66.87;103024.03;5002413;28;20026;-83
2021/10/09 02:34:36;;;;;;;0.20;0.20;;;;;;;12.07;66.59;103030.28;5001008;28;20393;-81
2021/10/09 02:37:03;;;;;;;1.02;0.82;;;;;;;12.08;66.95;103026.75;5001436;28;20034;-82
2021/10/09 02:39:29;;;;;;;0.10;0.10;;;;;;;12.02;67.19;103027.56;5007271;28;20030;-82
2021/10/09 02:41:55;;;;;;;0.15;0.15;;;;;;;12.03;67.09;103028.47;5004231;28;20062;-82
2021/10/09 02:44:22;;;;;;;0.28;0.28;;;;;;;12.01;67.53;103028.44;4999329;28;20022;-82
2021/10/09 02:46:48;;;;;;;0.10;0.10;;;;;;;12.00;66.94;103028.44;5004991;28;20064;-82
2021/10/09 02:49:15;;;;;;;0.50;0.50;;;;;;;11.99;66.85;103032.88;5002446;28;20043;-81
2021/10/09 02:51:41;;;;;;;0.10;0.10;;;;;;;12.00;66.86;103028.44;5006227;28;20129;-82
2021/10/09 02:54:07;;;;;;;0.70;0.70;;;;;;;11.97;66.99;103029.28;5000654;28;20374;-82
2021/10/09 02:56:34;;;;;;;0.10;0.10;;;;;;;11.97;67.15;103034.59;5005502;28;20026;-82
2021/10/09 02:59:00;;;;;;;1.15;1.15;;;;;;;12.00;67.21;103033.75;5002483;28;20045;-82
2021/10/09 03:01:26;;;;;;;0.98;0.98;;;;;;;11.94;67.12;103024.81;5007072;28;20036;-81
2021/10/09 03:03:52;;;;;;;0.10;0.10;;;;;;;11.96;66.95;103028.41;5002764;28;20516;-82
2021/10/09 03:06:19;;;;;;;0.98;0.98;;;;;;;11.97;66.99;103030.22;5003609;28;20037;-83
2021/10/09 03:08:45;;;;;;;3.33;0.68;;;;;;;11.94;67.30;103026.59;5003984;28;20034;-82
2021/10/09 03:11:11;;;;;;;0.10;0.10;;;;;;;11.89;67.50;103031.84;5002823;28;20101;-83
2021/10/09 03:13:38;;;;;;;1.10;1.00;;;;;;;11.89;67.59;103030.97;5005183;28;20034;-83
2021/10/09 03:16:05;;;;;;;0.65;0.65;;;;;;;11.91;67.78;103024.81;5006826;28;20037;-82
2021/10/09 03:18:31;;;;;;;0.65;0.65;;;;;;;11.92;67.47;103028.34;5016558;28;20026;-82
2021/10/09 03:20:57;;;;;;;0.57;0.57;;;;;;;11.86;67.63;103030.94;5022807;28;20095;-82
2021/10/09 03:23:24;;;;;;;3.65;0.65;;;;;;;11.91;66.93;103027.47;5022389;28;20025;-82
2021/10/09 03:25:50;;;;;;;3.08;1.88;;;;;;;11.86;67.19;103026.50;5022337;28;20034;-82
2021/10/09 03:28:16;;;;;;;4.47;1.65;;;;;;;11.85;67.54;103031.81;5019891;28;20473;-82
2021/10/09 03:30:43;;;;;;;0.20;0.20;;;;;;;11.84;67.53;103022.03;5007947;28;20040;-83
2021/10/09 03:33:09;;;;;;;0.10;0.10;;;;;;;11.84;66.92;103032.66;5011946;28;20393;-82
2021/10/09 03:35:35;;;;;;;0.47;0.47;;;;;;;11.81;67.42;103033.53;5015794;28;20034;-82
2021/10/09 03:38:03;;;;;;;0.75;0.75;;;;;;;11.83;67.42;103029.13;5015016;28;20128;-82
2021/10/09 03:40:29;;;;;;;0.10;0.10;;;;;;;11.86;67.30;103023.84;5015950;28;20075;-82
2021/10/09 03:43:01;;;;;;;0.22;0.22;;;;;;;11.84;67.30;103030.94;5015679;28;20105;-81
2021/10/09 03:45:31;;;;;;;1.48;1.13;;;;;;;11.81;67.60;103020.25;5015644;28;20149;-82
2021/10/09 03:53:26;;;;;;;0.10;0.10;;;;;;;11.76;67.61;103014.00;5068283;28;20894;-82
2021/10/09 03:55:52;;;;;;;0.47;0.47;;;;;;;11.73;67.20;103019.31;5059994;28;20556;-83
2021/10/09 03:58:19;;;;;;;0.10;0.10;;;;;;;11.70;67.56;103019.25;5049780;28;20037;-82
2021/10/09 04:00:45;;;;;;;0.10;0.10;;;;;;;11.75;66.87;103012.22;5051689;28;20029;-82
2021/10/09 04:03:18;;;;;;;0.10;0.10;;;;;;;11.72;67.38;103018.41;5059362;28;20028;-83
2021/10/09 04:05:44;;;;;;;0.10;0.10;;;;;;;11.69;67.18;103020.13;5070181;28;20075;-83
2021/10/09 04:08:11;;;;;;;0.20;0.20;;;;;;;11.67;67.21;103019.25;5070019;28;20036;-83
2021/10/09 04:10:39;;;;;;;0.17;0.17;;;;;;;11.68;66.77;103013.94;5070569;28;20021;-83
2021/10/09 04:13:06;;;;;;;0.40;0.40;;;;;;;11.65;67.19;103014.81;5063966;28;20087;-83
2021/10/09 04:15:32;;;;;;;0.10;0.10;;;;;;;11.61;67.65;103014.75;5049222;28;20029;-83
2021/10/09 04:17:58;;;;;;;0.10;0.10;;;;;;;11.64;67.11;103020.09;5046957;28;20021;-82
2021/10/09 04:20:25;;;;;;;0.10;0.10;;;;;;;11.61;67.26;103015.66;5049414;28;20027;-82
2021/10/09 04:22:51;;;;;;;0.10;0.10;;;;;;;11.64;66.84;103013.00;5048994;28;20060;-83
2021/10/09 04:25:17;;;;;;;0.85;0.85;;;;;;;11.57;67.48;103024.44;5047703;28;20025;-83
2021/10/09 04:27:43;;;;;;;0.20;0.20;;;;;;;11.55;67.23;103018.25;5046069;28;20094;-83
2021/10/09 04:30:10;;;;;;;1.50;1.23;;;;;;;11.55;67.49;103020.91;5045739;28;20433;-83
2021/10/09 04:32:37;;;;;;;0.95;0.95;;;;;;;11.53;67.40;103022.63;5045662;28;20120;-83
2021/10/09 04:35:04;;;;;;;0.10;0.10;;;;;;;11.56;67.45;103017.34;5048314;28;20071;-83
2021/10/09 04:37:30;;;;;;;0.05;0.05;;;;;;;11.53;67.42;103022.63;5048235;28;20136;-83
2021/10/09 04:39:56;;;;;;;0.10;0.10;;;;;;;11.54;67.23;103019.09;5046629;28;20388;-83
2021/10/09 04:42:22;;;;;;;0.63;0.63;;;;;;;11.52;67.04;103020.84;5046936;28;20029;-82
2021/10/09 04:44:48;;;;;;;0.28;0.28;;;;;;;11.51;67.48;103020.84;5046276;28;20030;-82
2021/10/09 04:47:15;;;;;;;0.10;0.10;;;;;;;11.53;67.42;103024.41;5045690;28;20128;-83
2021/10/09 04:49:41;;;;;;;0.10;0.10;;;;;;;11.45;67.15;103013.69;5047463;28;20512;-81
2021/10/09 04:52:07;;;;;;;0.47;0.47;;;;;;;11.45;67.22;103019.91;5047499;28;20396;-81
2021/10/09 04:54:33;;;;;;;0.28;0.28;;;;;;;11.45;67.32;103021.66;5043889;28;20033;-83
2021/10/09 04:56:59;;;;;;;0.10;0.10;;;;;;;11.42;67.27;103018.97;5043043;28;20048;-83
2021/10/09 04:59:25;;;;;;;0.10;0.10;;;;;;;11.42;67.41;103017.19;5046950;28;20033;-83
2021/10/09 05:01:52;;;;;;;0.80;0.80;;;;;;;11.39;67.17;103019.81;5045085;28;20120;-83
2021/10/09 05:04:18;;;;;;;0.10;0.10;;;;;;;11.38;67.07;103015.38;5035927;28;20033;-82
2021/10/09 05:06:44;;;;;;;0.20;0.20;;;;;;;11.36;67.01;103013.59;5031628;28;20060;-82
2021/10/09 05:09:10;;;;;;;0.30;0.30;;;;;;;11.35;67.09;103017.09;5029942;28;20053;-81
2021/10/09 05:11:36;;;;;;;0.10;0.10;;;;;;;11.33;67.08;103009.13;5029223;28;20079;-81
2021/10/09 05:14:03;;;;;;;0.10;0.10;;;;;;;11.33;67.28;103009.13;5032654;28;20546;-80
2021/10/09 05:16:29;;;;;;;0.10;0.10;;;;;;;11.31;67.53;103011.78;5032735;28;20033;-81
2021/10/09 05:18:56;;;;;;;0.10;0.10;;;;;;;11.36;66.89;103018.91;5030930;28;20040;-82
2021/10/09 05:21:22;;;;;;;0.10;0.10;;;;;;;11.28;67.35;103022.34;5032949;28;20120;-82
2021/10/09 05:23:48;;;;;;;0.10;0.10;;;;;;;11.28;67.54;103014.38;5032677;28;20029;-81
2021/10/09 05:26:14;;;;;;;0.20;0.20;;;;;;;11.32;66.90;103017.97;5031361;28;20498;-82
2021/10/09 05:28:43;;;;;;;0.30;0.30;;;;;;;11.26;67.19;103013.47;5032390;28;20072;-82
2021/10/09 05:31:12;;;;;;;1.42;0.73;;;;;;;11.30;67.31;103012.66;5030228;28;20037;-82
2021/10/09 05:33:42;;;;;;;0.10;0.10;;;;;;;11.23;67.36;103012.56;5032179;28;20021;-81
2021/10/09 05:36:08;;;;;;;0.10;0.10;;;;;;;11.25;67.17;103011.72;5032561;28;20120;-82
2021/10/09 05:38:34;;;;;;;9.25;1.60;;;;;;;11.25;67.07;103022.31;5033142;28;20435;-82
2021/10/09 05:41:01;;;;;;;1.65;0.70;;;;;;;11.21;67.31;103016.94;5032519;28;20030;-82
2021/10/09 05:43:28;;;;;;;0.57;0.57;;;;;;;11.15;67.68;103025.72;5034417;28;20504;-83
2021/10/09 05:45:54;;;;;;;0.20;0.20;;;;;;;11.17;67.18;103023.97;5033055;28;20488;-82
2021/10/09 05:48:21;;;;;;;0.10;0.10;;;;;;;11.16;67.26;103022.19;5031130;28;20083;-80
2021/10/09 05:50:55;;;;;;;0.63;0.63;;;;;;;11.17;67.41;103021.31;5026760;28;20026;-82
2021/10/09 05:56:17;;;;;;;0.10;0.10;;;;;;;11.13;67.55;103027.47;5031877;28;20037;-82
2021/10/09 05:58:53;;;;;;;0.10;0.10;;;;;;;11.14;67.52;103024.84;5030352;28;20052;-82
2021/10/09 06:01:36;;;;;;;0.20;0.20;;;;;;;11.09;67.18;103026.53;5032833;28;20040;-82
2021/10/09 06:32:09;;;;;;;2.17;1.75;;;;;;;11.36;67.89;103045.44;5024329;28;20029;-82
2021/10/09 06:37:48;;;;;;;0.40;0.40;;;;;;;11.38;67.93;103051.66;5016102;28;20041;-82
2021/10/09 06:43:13;;;;;;;0.00;0.00;;;;;;;11.46;67.62;103052.63;5053676;28;20037;-82
2021/10/09 06:45:58;;;;;;;0.10;0.10;;;;;;;11.50;67.31;103051.78;5052685;28;20037;-82
2021/10/09 06:48:41;;;;;;;0.43;0.43;;;;;;;11.47;67.92;103062.38;5027098;28;20042;-83
2021/10/09 06:59:38;;;;;;;0.10;0.10;;;;;;;11.57;67.69;103066.03;5030425;28;20049;-82
2021/10/09 07:02:04;;;;;;;0.75;0.75;;;;;;;11.60;67.98;103066.97;5042815;28;20029;-82
2021/10/09 07:04:31;;;;;;;0.10;0.10;;;;;;;11.60;67.46;103072.28;5037515;28;20056;-82
2021/10/09 07:06:58;;;;;;;0.10;0.10;;;;;;;11.68;67.47;103080.31;5049272;28;20059;-82
2021/10/09 07:09:24;;;;;;;0.10;0.10;;;;;;;11.69;67.57;103081.19;5043425;28;20033;-82
2021/10/09 07:11:51;;;;;;;0.25;0.25;;;;;;;11.73;67.77;103080.38;5034965;28;20377;-82
2021/10/09 07:14:17;;;;;;;0.10;0.10;;;;;;;11.74;67.51;103076.81;5030226;28;20034;-82
2021/10/09 07:16:43;;;;;;;0.43;0.43;;;;;;;11.78;67.99;103081.31;5030946;28;20029;-82
2021/10/09 07:19:09;;;;;;;0.10;0.10;;;;;;;11.82;67.54;103083.13;5045960;28;20037;-82
2021/10/09 07:21:35;;;;;;;0.65;0.65;;;;;;;11.86;67.63;103087.59;5048028;28;20428;-83
2021/10/09 07:24:01;;;;;;;0.38;0.38;;;;;;;11.92;67.59;103085.00;5042192;28;20067;-83
2021/10/09 07:26:27;;;;;;;0.52;0.52;;;;;;;11.97;67.86;103088.66;5040582;28;20527;-83
2021/10/09 07:28:54;;;;;;;0.30;0.30;;;;;;;12.01;67.70;103089.53;5039788;28;20108;-83
2021/10/09 07:31:20;;;;;;;0.10;0.10;;;;;;;12.05;67.71;103091.38;5040675;28;20030;-83
2021/10/09 07:33:46;;;;;;;0.10;0.10;;;;;;;12.02;68.30;103091.34;5034041;28;20088;-83
2021/10/09 07:36:12;;;;;;;0.40;0.40;;;;;;;12.09;68.48;103092.31;5049341;28;20488;-83
2021/10/09 07:38:38;;;;;;;0.10;0.10;;;;;;;12.14;67.82;103091.47;5038103;28;20066;-82
2021/10/09 07:41:11;;;;;;;0.15;0.15;;;;;;;12.22;68.05;103093.31;5036689;28;20126;-82
2021/10/09 07:43:37;;;;;;;0.10;0.10;;;;;;;12.26;68.19;103097.75;5043905;28;20040;-83
2021/10/09 07:46:03;;;;;;;0.40;0.40;;;;;;;12.31;68.09;103101.34;5039917;28;20472;-83
2021/10/09 07:48:29;;;;;;;0.30;0.30;;;;;;;12.35;68.42;103103.19;5044696;28;20043;-83
2021/10/09 07:50:56;;;;;;;0.30;0.30;;;;;;;12.43;68.15;103105.91;5032661;28;20100;-83
2021/10/09 07:53:23;;;;;;;0.32;0.22;;;;;;;12.44;68.70;103105.03;5045343;28;20124;-83
2021/10/09 07:55:49;;;;;;;0.10;0.10;;;;;;;12.52;68.56;103103.28;5038707;28;20034;-83
2021/10/09 07:58:16;;;;;;;0.40;0.40;;;;;;;12.53;68.13;103105.09;5037046;28;20025;-82
2021/10/09 08:00:42;;;;;;;0.10;0.10;;;;;;;12.67;67.84;103102.53;5029613;28;20061;-83
2021/10/09 08:03:08;;;;;;;0.65;0.65;;;;;;;12.75;68.08;103106.16;5035572;28;20536;-83
2021/10/09 08:05:34;;;;;;;0.20;0.20;;;;;;;12.82;68.37;103107.06;5026327;28;20033;-82
2021/10/09 08:08:02;;;;;;;1.40;1.30;;;;;;;12.88;68.26;103111.56;5015638;28;20091;-83
2021/10/09 08:10:31;;;;;;;0.10;0.10;;;;;;;12.97;69.58;103105.41;5015981;28;20097;-84
2021/10/09 08:13:00;;;;;;;0.20;0.20;;;;;;;13.02;69.12;103101.91;5028343;28;20123;-82
2021/10/09 08:15:26;;;;;;;0.20;0.20;;;;;;;13.13;68.28;103104.59;5020541;28;20034;-82
2021/10/09 08:17:52;;;;;;;0.10;0.10;;;;;;;13.18;68.94;103105.50;5031197;28;20026;-81
2021/10/09 08:20:18;;;;;;;1.10;1.00;;;;;;;13.19;68.35;103094.00;5025231;28;20037;-82
2021/10/09 08:22:57;;;;;;;0.60;0.60;;;;;;;13.33;68.63;103095.84;5034687;28;20026;-81
2021/10/09 08:39:09;;;;;;;0.25;0.25;;;;;;;13.89;68.31;103105.84;5070307;28;20041;-78
2021/10/09 08:41:35;;;;;;;0.43;0.43;;;;;;;13.96;68.96;103101.41;5070800;28;20021;-79
2021/10/09 08:44:01;;;;;;;4.28;1.42;;;;;;;14.05;69.20;103100.53;5069959;28;20491;-83
2021/10/09 08:46:27;;;;;;;0.52;0.52;;;;;;;14.11;68.52;103100.53;5070315;28;20414;-82
2021/10/09 08:48:53;;;;;;;0.57;0.57;;;;;;;14.22;69.00;103096.09;5069576;28;20068;-82
2021/10/09 08:51:26;;;;;;;1.20;1.20;;;;;;;14.36;68.28;103108.56;5070611;28;20036;-81
2021/10/09 08:53:53;;;;;;;1.75;1.08;;;;;;;14.45;67.88;103105.88;5069942;28;20048;-81
2021/10/09 08:56:38;;;;;;;0.30;0.30;;;;;;;14.61;67.89;103105.91;5070091;28;20025;-82
2021/10/09 08:59:15;;;;;;;0.10;0.10;;;;;;;14.66;67.83;103109.47;5069018;28;20021;-82
2021/10/09 09:01:51;;;;;;;0.52;0.52;;;;;;;14.72;67.86;103105.03;5061207;28;20025;-82
2021/10/09 09:07:23;;;;;;;0.75;0.75;;;;;;;14.96;67.39;103096.97;5071118;27;20431;-84
2021/10/09 09:27:06;;;;;;;2.05;1.95;;;;;;;15.55;66.16;103091.44;5050734;28;20052;-82
2021/10/09 09:31:06;;;;;;;0.75;0.75;;;;;;;15.63;66.14;103084.28;5050582;28;20032;-83
2021/10/09 09:35:43;;;;;;;1.48;1.45;;;;;;;15.77;66.18;103093.06;5071464;27;20435;-83
2021/10/09 09:40:45;;;;;;;1.70;1.70;;;;;;;15.99;65.66;103090.31;5133625;27;20182;-81
2021/10/09 09:43:12;;;;;;;0.63;0.63;;;;;;;16.06;65.68;103085.81;5142738;27;20039;-82
2021/10/09 09:45:38;;;;;;;2.30;1.20;;;;;;;16.13;65.04;103091.09;5136756;27;20096;-81
2021/10/09 09:48:06;;;;;;;0.85;0.85;;;;;;;16.13;65.19;103085.75;5120229;27;20057;-82
2021/10/09 09:50:35;;;;;;;0.30;0.30;;;;;;;16.28;64.73;103089.22;5113532;28;20058;-82
2021/10/09 09:53:03;;;;;;;0.10;0.10;;;;;;;16.34;64.85;103086.50;5111500;28;20035;-82
2021/10/09 09:55:30;;;;;;;0.35;0.35;;;;;;;16.40;64.53;103086.44;5110357;27;20383;-83
2021/10/09 09:58:00;;;;;;;1.13;1.00;;;;;;;16.47;63.43;103085.50;5114029;28;20028;-83
2021/10/09 10:00:31;;;;;;;1.85;1.45;;;;;;;16.50;64.44;103084.56;5127508;28;20424;-81
2021/10/09 10:02:57;;;;;;;37.45;2.63;;;;;;;16.64;64.23;103087.13;5115618;28;20081;-83
2021/10/09 10:05:28;;;;;;;0.68;0.68;;;;;;;16.72;64.38;103090.59;5110755;27;20050;-79
2021/10/09 10:07:55;;;;;;;2.97;1.00;;;;;;;16.80;63.18;103090.53;5118025;27;20024;-81
2021/10/09 10:10:21;;;;;;;3.50;0.95;;;;;;;16.90;63.84;103083.28;5110157;28;20036;-81
2021/10/09 10:12:55;;;;;;;1.38;1.33;;;;;;;17.03;64.02;103090.28;5109934;28;20036;-80
2021/10/09 10:15:27;;;;;;;0.20;0.20;;;;;;;17.12;63.15;103076.81;5111711;28;20127;-81
2021/10/09 10:17:54;;;;;;;0.57;0.57;;;;;;;17.19;62.15;103082.09;5110943;28;20084;-81
2021/10/09 10:20:23;;;;;;;1.20;1.00;;;;;;;17.27;63.56;103077.50;5109417;28;20097;-81
2021/10/09 10:25:34;;;;;;;1.33;1.05;;;;;;;17.37;62.66;103078.28;5078210;27;20479;-81
2021/10/09 10:31:04;;;;;;;1.70;1.60;;;;;;;17.62;62.65;103081.56;5081714;27;20922;-81
2021/10/09 10:33:37;;;;;;;0.28;0.28;;;;;;;17.62;62.16;103085.09;5069801;28;20102;-81
2021/10/09 10:36:03;;;;;;;0.52;0.52;;;;;;;17.66;61.96;103083.28;5069313;28;20032;-81
2021/10/09 10:41:12;;;;;;;1.42;1.42;;;;;;;17.78;61.06;103080.41;5057701;28;20414;-93
2021/10/09 10:43:43;;;;;;;4.25;1.13;;;;;;;17.88;61.58;103086.53;5051905;28;20033;-92
2021/10/09 10:49:35;;;;;;;2.45;2.03;;;;;;;17.99;61.37;103082.81;5074695;27;20419;-93
2021/10/09 10:52:10;;;;;;;1.73;1.65;;;;;;;18.01;61.43;103081.88;5072036;28;20098;-92
2021/10/09 10:54:38;;;;;;;0.65;0.40;;;;;;;18.07;60.62;103087.16;5072677;28;20472;-91
2021/10/09 10:59:52;;;;;;;0.38;0.38;;;;;;;18.28;60.66;103079.69;5091965;27;20419;-92
2021/10/09 11:05:09;;;;;;;0.25;0.25;;;;;;;18.39;60.06;103072.34;5092130;27;20420;-92
2021/10/09 11:07:39;;;;;;;0.82;0.82;;;;;;;18.46;60.28;103072.22;5066968;28;20033;-83
2021/10/09 11:12:49;;;;;;;1.25;1.15;;;;;;;18.58;59.90;103069.31;5091784;27;20389;-93
2021/10/09 11:15:20;;;;;;;0.35;0.30;;;;;;;18.55;59.60;103067.56;5072239;28;20039;-93
2021/10/09 11:17:58;;;;;;;1.15;1.15;;;;;;;18.69;58.36;103075.38;5065820;28;20029;-92
2021/10/09 11:20:27;;;;;;;4.28;2.95;;;;;;;18.73;58.08;103077.09;5051793;28;20033;-93
2021/10/09 11:22:57;;;;;;;0.90;0.90;;;;;;;18.74;58.62;103069.91;5051813;28;20029;-93
2021/10/09 11:28:21;;;;;;;1.90;0.80;;;;;;;18.88;55.94;103069.66;5060968;28;20418;-92
2021/10/09 11:30:47;;;;;;;0.68;0.68;;;;;;;18.96;57.03;103067.72;5052105;28;20037;-93
2021/10/09 11:33:14;;;;;;;0.82;0.80;;;;;;;19.03;57.13;103061.31;5050943;28;20087;-94
2021/10/09 11:35:41;;;;;;;0.60;0.60;;;;;;;19.11;58.16;103060.28;5053230;28;20072;-94
2021/10/09 11:38:30;;;;;;;1.52;1.42;;;;;;;19.26;57.36;103051.88;5052820;28;20099;-93
2021/10/09 11:41:06;;;;;;;0.50;0.50;;;;;;;19.26;55.39;103054.56;5052122;28;20032;-93
2021/10/09 11:43:45;;;;;;;1.02;0.98;;;;;;;19.29;56.24;103054.53;5053890;28;20035;-92
2021/10/09 11:55:24;;;;;;;0.95;0.95;;;;;;;19.45;55.67;103046.09;5114932;27;20384;-85
2021/10/09 11:57:51;;;;;;;0.75;0.75;;;;;;;19.53;54.37;103052.22;5113994;28;20032;-93
2021/10/09 12:03:35;;;;;;;0.43;0.43;;;;;;;19.75;54.89;103040.94;5122185;27;20384;-93
2021/10/09 12:08:53;;;;;;;0.95;0.95;;;;;;;19.83;54.45;103045.25;5076076;28;20444;-91
2021/10/09 12:14:02;;;;;;;0.30;0.30;;;;;;;19.87;53.33;103052.31;5098846;27;20415;-93
2021/10/09 12:16:31;;;;;;;0.95;0.95;;;;;;;19.98;54.79;103044.00;5072257;28;20051;-93
2021/10/09 12:19:02;;;;;;;5.88;1.80;;;;;;;19.99;53.83;103040.38;5058008;28;20029;-93
2021/10/09 12:21:33;;;;;;;0.60;0.60;;;;;;;20.07;54.69;103036.63;5051744;28;20037;-93
2021/10/09 12:24:11;;;;;;;0.32;0.32;;;;;;;20.00;52.28;103035.88;5052154;28;20037;-93
2021/10/09 12:26:37;;;;;;;1.83;1.70;;;;;;;20.10;53.70;103036.53;5053849;28;20034;-93
2021/10/09 12:29:05;;;;;;;0.30;0.30;;;;;;;20.12;53.75;103029.31;5050940;28;20029;-94
2021/10/09 12:31:34;;;;;;;3.33;1.92;;;;;;;20.22;54.15;103030.84;5051849;28;20069;-94
2021/10/09 12:34:01;;;;;;;0.20;0.20;;;;;;;20.28;53.43;103025.28;5051063;28;20120;-92
2021/10/09 12:36:32;;;;;;;0.98;0.95;;;;;;;20.36;53.22;103028.69;5055162;28;20021;-92
2021/10/09 12:39:27;;;;;;;0.93;0.93;;;;;;;20.52;52.27;103023.78;5050493;28;20029;-84
2021/10/09 12:41:55;;;;;;;0.75;0.75;;;;;;;20.52;52.88;103018.38;5050384;28;20037;-93
2021/10/09 12:44:22;;;;;;;2.63;1.27;;;;;;;20.59;53.71;103026.28;5051034;28;20040;-93
2021/10/09 12:46:48;;;;;;;0.30;0.30;;;;;;;20.62;52.13;103018.13;5050826;28;20030;-94
2021/10/09 12:49:16;;;;;;;1.20;1.13;;;;;;;20.71;52.83;103016.97;5050787;28;20033;-93
2021/10/09 12:51:42;;;;;;;0.45;0.45;;;;;;;20.76;53.66;103023.13;5050511;28;20106;-93
2021/10/09 12:54:09;;;;;;;0.82;0.82;;;;;;;20.77;50.83;103014.13;5050609;28;20041;-94
2021/10/09 12:56:37;;;;;;;2.72;2.38;;;;;;;20.73;51.91;103004.38;5050441;28;20384;-93
2021/10/09 12:59:04;;;;;;;1.42;1.42;;;;;;;20.80;52.34;103000.59;5050749;28;20032;-94
2021/10/09 13:01:30;;;;;;;3.25;1.35;;;;;;;20.77;52.06;102997.97;5050515;28;20032;-93
2021/10/09 13:03:57;;;;;;;0.77;0.60;;;;;;;20.80;50.13;103005.97;5046985;28;20439;-94
2021/10/09 13:06:23;;;;;;;1.15;1.15;;;;;;;20.65;49.18;103002.75;5038763;28;20029;-88
2021/10/09 13:08:49;;;;;;;1.90;1.33;;;;;;;20.75;50.02;102987.25;5047880;28;20083;-90
2021/10/09 13:11:21;;;;;;;0.30;0.30;;;;;;;20.85;50.61;102988.75;5045482;28;20068;-94
2021/10/09 13:13:47;;;;;;;0.80;0.80;;;;;;;20.84;50.58;102991.47;5038693;28;20041;-90
2021/10/09 13:16:14;;;;;;;4.10;1.23;;;;;;;20.87;49.11;102985.13;5034440;28;20021;-93
2021/10/09 13:18:41;;;;;;;0.52;0.52;;;;;;;20.91;49.51;102989.47;5029590;28;20030;-94
2021/10/09 13:21:07;;;;;;;0.40;0.40;;;;;;;20.99;49.78;102991.03;5039457;28;20033;-92
2021/10/09 13:23:33;;;;;;;0.30;0.30;;;;;;;21.06;49.99;102990.84;5041823;28;20041;-91
2021/10/09 13:25:59;;;;;;;0.80;0.80;;;;;;;21.09;49.85;102988.06;5033231;28;20025;-93
2021/10/09 13:28:26;;;;;;;1.67;1.23;;;;;;;21.06;48.60;102985.44;5031848;28;20033;-90
2021/10/09 13:30:52;;;;;;;2.63;2.47;;;;;;;21.21;50.13;102979.59;5027761;28;20037;-93
2021/10/09 13:33:20;;;;;;;0.95;0.95;;;;;;;21.24;49.52;102974.09;5031100;28;20037;-90
2021/10/09 13:35:46;;;;;;;0.68;0.68;;;;;;;21.17;48.56;102970.72;5021125;28;20026;-92
2021/10/09 13:38:14;;;;;;;1.23;0.73;;;;;;;21.16;49.67;102971.66;5071369;22;20069;-83
2021/10/09 13:40:41;;;;;;;0.57;0.57;;;;;;;21.20;49.06;102966.16;5015610;28;20030;-81
2021/10/09 13:43:12;;;;;;;0.60;0.57;;;;;;;21.12;48.48;102969.09;5010565;28;20034;-80
2021/10/09 13:45:44;;;;;;;0.60;0.60;;;;;;;21.17;48.05;102959.03;5015892;28;20037;-80
2021/10/09 13:48:12;;;;;;;1.20;0.88;;;;;;;21.20;49.08;102963.44;5014435;28;20109;-81
2021/10/09 13:50:44;;;;;;;1.17;0.65;;;;;;;21.23;48.62;102957.97;5009587;28;20037;-80
2021/10/09 13:53:12;;;;;;;1.20;0.65;;;;;;;21.22;47.09;102957.13;5014935;28;20029;-81
2021/10/09 13:55:42;;;;;;;0.50;0.50;;;;;;;21.29;48.05;102955.97;5015210;28;20025;-81